sensor_id;sensor_type;location;lat;lon;timestamp;P1;durP1;ratioP1;P2;durP2;ratioP2
10863;SDS011;5485;37.558;126.950;2023-04-25T00:00:19;14.27;;;5.85;;
10863;SDS011;5485;37.558;126.950;2023-04-25T00:02:46;13.55;;;5.68;;
10863;SDS011;5485;37.558;126.950;2023-04-25T00:05:13;8.57;;;5.45;;
10863;SDS011;5485;37.558;126.950;2023-04-25T00:07:41;13.98;;;6.05;;
10863;SDS011;5485;37.558;126.950;2023-04-25T00:10:08;13.35;;;5.50;;
10863;SDS011;5485;37.558;126.950;2023-04-25T00:12:37;14.00;;;5.82;;
10863;SDS011;5485;37.558;126.950;2023-04-25T00:15:04;9.27;;;5.40;;
10863;SDS011;5485;37.558;126.950;2023-04-25T00:17:31;12.15;;;5.75;;
10863;SDS011;5485;37.558;126.950;2023-04-25T00:20:00;14.10;;;6.15;;
10863;SDS011;5485;37.558;126.950;2023-04-25T00:22:30;10.75;;;5.97;;
10863;SDS011;5485;37.558;126.950;2023-04-25T00:25:00;10.00;;;6.25;;
10863;SDS011;5485;37.558;126.950;2023-04-25T00:27:28;8.93;;;6.00;;
10863;SDS011;5485;37.558;126.950;2023-04-25T00:29:55;13.23;;;5.85;;
10863;SDS011;5485;37.558;126.950;2023-04-25T00:32:22;13.40;;;6.18;;
10863;SDS011;5485;37.558;126.950;2023-04-25T00:34:49;13.30;;;6.20;;
10863;SDS011;5485;37.558;126.950;2023-04-25T00:37:18;10.50;;;5.85;;
10863;SDS011;5485;37.558;126.950;2023-04-25T00:39:48;10.25;;;5.35;;
10863;SDS011;5485;37.558;126.950;2023-04-25T00:42:16;12.18;;;5.38;;
10863;SDS011;5485;37.558;126.950;2023-04-25T00:44:44;9.25;;;5.63;;
10863;SDS011;5485;37.558;126.950;2023-04-25T00:47:12;10.40;;;6.40;;
10863;SDS011;5485;37.558;126.950;2023-04-25T00:49:39;10.32;;;5.47;;
10863;SDS011;5485;37.558;126.950;2023-04-25T00:52:06;7.50;;;5.43;;
10863;SDS011;5485;37.558;126.950;2023-04-25T00:54:33;11.52;;;5.90;;
10863;SDS011;5485;37.558;126.950;2023-04-25T00:57:06;14.10;;;6.68;;
10863;SDS011;5485;37.558;126.950;2023-04-25T00:59:36;10.20;;;5.90;;
10863;SDS011;5485;37.558;126.950;2023-04-25T01:02:08;13.95;;;6.68;;
10863;SDS011;5485;37.558;126.950;2023-04-25T01:04:38;12.15;;;6.28;;
10863;SDS011;5485;37.558;126.950;2023-04-25T01:07:05;15.45;;;7.13;;
10863;SDS011;5485;37.558;126.950;2023-04-25T01:09:33;13.85;;;7.35;;
10863;SDS011;5485;37.558;126.950;2023-04-25T01:12:00;15.57;;;7.45;;
10863;SDS011;5485;37.558;126.950;2023-04-25T01:14:28;11.07;;;6.65;;
10863;SDS011;5485;37.558;126.950;2023-04-25T01:16:55;15.98;;;8.05;;
10863;SDS011;5485;37.558;126.950;2023-04-25T01:19:22;13.02;;;7.53;;
10863;SDS011;5485;37.558;126.950;2023-04-25T01:21:50;11.43;;;7.30;;
10863;SDS011;5485;37.558;126.950;2023-04-25T01:24:17;15.60;;;8.18;;
10863;SDS011;5485;37.558;126.950;2023-04-25T01:26:44;14.82;;;6.53;;
10863;SDS011;5485;37.558;126.950;2023-04-25T01:29:18;13.73;;;6.82;;
10863;SDS011;5485;37.558;126.950;2023-04-25T01:31:46;12.68;;;6.93;;
10863;SDS011;5485;37.558;126.950;2023-04-25T01:34:13;14.20;;;7.30;;
10863;SDS011;5485;37.558;126.950;2023-04-25T01:36:40;11.50;;;6.57;;
10863;SDS011;5485;37.558;126.950;2023-04-25T01:39:07;10.65;;;7.45;;
10863;SDS011;5485;37.558;126.950;2023-04-25T01:41:36;18.65;;;8.07;;
10863;SDS011;5485;37.558;126.950;2023-04-25T01:44:05;10.95;;;6.72;;
10863;SDS011;5485;37.558;126.950;2023-04-25T01:46:32;13.85;;;7.40;;
10863;SDS011;5485;37.558;126.950;2023-04-25T01:49:00;13.20;;;6.68;;
10863;SDS011;5485;37.558;126.950;2023-04-25T01:51:29;11.25;;;6.30;;
10863;SDS011;5485;37.558;126.950;2023-04-25T01:53:57;11.50;;;6.72;;
10863;SDS011;5485;37.558;126.950;2023-04-25T01:56:29;10.85;;;5.72;;
10863;SDS011;5485;37.558;126.950;2023-04-25T01:58:59;13.52;;;6.53;;
10863;SDS011;5485;37.558;126.950;2023-04-25T02:01:26;11.73;;;6.45;;
10863;SDS011;5485;37.558;126.950;2023-04-25T02:03:53;8.27;;;5.80;;
10863;SDS011;5485;37.558;126.950;2023-04-25T02:06:20;14.23;;;6.68;;
10863;SDS011;5485;37.558;126.950;2023-04-25T02:08:47;10.05;;;5.85;;
10863;SDS011;5485;37.558;126.950;2023-04-25T02:11:14;11.88;;;5.97;;
10863;SDS011;5485;37.558;126.950;2023-04-25T02:13:42;10.75;;;6.07;;
10863;SDS011;5485;37.558;126.950;2023-04-25T02:16:09;7.90;;;6.28;;
10863;SDS011;5485;37.558;126.950;2023-04-25T02:18:36;12.93;;;6.18;;
10863;SDS011;5485;37.558;126.950;2023-04-25T02:21:03;10.80;;;7.00;;
10863;SDS011;5485;37.558;126.950;2023-04-25T02:23:30;10.02;;;6.13;;
10863;SDS011;5485;37.558;126.950;2023-04-25T02:25:57;9.05;;;5.88;;
10863;SDS011;5485;37.558;126.950;2023-04-25T02:28:24;12.32;;;6.78;;
10863;SDS011;5485;37.558;126.950;2023-04-25T02:30:51;10.10;;;6.93;;
10863;SDS011;5485;37.558;126.950;2023-04-25T02:33:18;9.63;;;6.72;;
10863;SDS011;5485;37.558;126.950;2023-04-25T02:35:46;14.63;;;7.40;;
10863;SDS011;5485;37.558;126.950;2023-04-25T02:38:13;10.15;;;6.97;;
10863;SDS011;5485;37.558;126.950;2023-04-25T02:40:40;8.63;;;6.45;;
10863;SDS011;5485;37.558;126.950;2023-04-25T02:43:07;14.90;;;7.20;;
10863;SDS011;5485;37.558;126.950;2023-04-25T02:45:36;13.60;;;7.32;;
10863;SDS011;5485;37.558;126.950;2023-04-25T02:48:03;13.80;;;7.63;;
10863;SDS011;5485;37.558;126.950;2023-04-25T02:50:30;13.95;;;8.07;;
10863;SDS011;5485;37.558;126.950;2023-04-25T02:52:58;12.82;;;7.93;;
10863;SDS011;5485;37.558;126.950;2023-04-25T02:55:28;14.30;;;7.70;;
10863;SDS011;5485;37.558;126.950;2023-04-25T02:57:55;8.63;;;7.18;;
10863;SDS011;5485;37.558;126.950;2023-04-25T03:00:22;8.32;;;6.90;;
10863;SDS011;5485;37.558;126.950;2023-04-25T03:02:49;9.30;;;7.28;;
10863;SDS011;5485;37.558;126.950;2023-04-25T03:05:16;13.32;;;7.47;;
10863;SDS011;5485;37.558;126.950;2023-04-25T03:07:43;10.82;;;7.38;;
10863;SDS011;5485;37.558;126.950;2023-04-25T03:10:11;12.52;;;7.80;;
10863;SDS011;5485;37.558;126.950;2023-04-25T03:12:38;13.02;;;8.40;;
10863;SDS011;5485;37.558;126.950;2023-04-25T03:15:05;12.60;;;9.02;;
10863;SDS011;5485;37.558;126.950;2023-04-25T03:17:33;17.35;;;8.38;;
10863;SDS011;5485;37.558;126.950;2023-04-25T03:20:00;9.50;;;8.50;;
10863;SDS011;5485;37.558;126.950;2023-04-25T03:22:30;17.25;;;8.70;;
10863;SDS011;5485;37.558;126.950;2023-04-25T03:24:57;13.02;;;9.00;;
10863;SDS011;5485;37.558;126.950;2023-04-25T03:27:24;15.20;;;9.65;;
10863;SDS011;5485;37.558;126.950;2023-04-25T03:29:51;10.70;;;9.07;;
10863;SDS011;5485;37.558;126.950;2023-04-25T03:32:18;9.55;;;8.68;;
10863;SDS011;5485;37.558;126.950;2023-04-25T03:34:45;10.68;;;8.73;;
10863;SDS011;5485;37.558;126.950;2023-04-25T03:37:12;14.27;;;9.48;;
10863;SDS011;5485;37.558;126.950;2023-04-25T03:39:38;14.95;;;8.55;;
10863;SDS011;5485;37.558;126.950;2023-04-25T03:42:14;13.95;;;8.88;;
10863;SDS011;5485;37.558;126.950;2023-04-25T03:44:41;15.38;;;9.07;;
10863;SDS011;5485;37.558;126.950;2023-04-25T03:47:08;13.30;;;9.45;;
10863;SDS011;5485;37.558;126.950;2023-04-25T03:49:35;11.93;;;9.40;;
10863;SDS011;5485;37.558;126.950;2023-04-25T03:52:02;14.20;;;9.38;;
10863;SDS011;5485;37.558;126.950;2023-04-25T03:54:29;11.68;;;9.52;;
10863;SDS011;5485;37.558;126.950;2023-04-25T03:56:56;9.90;;;8.93;;
10863;SDS011;5485;37.558;126.950;2023-04-25T03:59:23;13.35;;;9.43;;
10863;SDS011;5485;37.558;126.950;2023-04-25T04:01:52;13.40;;;10.48;;
10863;SDS011;5485;37.558;126.950;2023-04-25T04:04:20;11.57;;;10.30;;
10863;SDS011;5485;37.558;126.950;2023-04-25T04:06:49;11.20;;;9.38;;
10863;SDS011;5485;37.558;126.950;2023-04-25T04:09:18;10.88;;;8.57;;
10863;SDS011;5485;37.558;126.950;2023-04-25T04:11:45;11.68;;;9.43;;
10863;SDS011;5485;37.558;126.950;2023-04-25T04:14:12;9.85;;;8.88;;
10863;SDS011;5485;37.558;126.950;2023-04-25T04:16:39;10.60;;;8.95;;
10863;SDS011;5485;37.558;126.950;2023-04-25T04:19:06;10.32;;;9.20;;
10863;SDS011;5485;37.558;126.950;2023-04-25T04:21:33;12.00;;;9.70;;
10863;SDS011;5485;37.558;126.950;2023-04-25T04:24:02;10.25;;;9.13;;
10863;SDS011;5485;37.558;126.950;2023-04-25T04:26:31;14.45;;;10.48;;
10863;SDS011;5485;37.558;126.950;2023-04-25T04:28:59;12.52;;;10.02;;
10863;SDS011;5485;37.558;126.950;2023-04-25T04:31:26;10.80;;;9.70;;
10863;SDS011;5485;37.558;126.950;2023-04-25T04:33:59;11.05;;;10.05;;
10863;SDS011;5485;37.558;126.950;2023-04-25T04:36:27;13.55;;;10.82;;
10863;SDS011;5485;37.558;126.950;2023-04-25T04:38:57;14.23;;;11.52;;
10863;SDS011;5485;37.558;126.950;2023-04-25T04:41:24;15.63;;;10.30;;
10863;SDS011;5485;37.558;126.950;2023-04-25T04:43:53;14.40;;;11.23;;
10863;SDS011;5485;37.558;126.950;2023-04-25T04:46:21;12.13;;;10.88;;
10863;SDS011;5485;37.558;126.950;2023-04-25T04:48:49;15.55;;;11.68;;
10863;SDS011;5485;37.558;126.950;2023-04-25T04:51:18;12.35;;;10.65;;
10863;SDS011;5485;37.558;126.950;2023-04-25T04:53:46;15.80;;;12.10;;
10863;SDS011;5485;37.558;126.950;2023-04-25T04:56:13;13.85;;;11.02;;
10863;SDS011;5485;37.558;126.950;2023-04-25T04:58:40;12.77;;;11.52;;
10863;SDS011;5485;37.558;126.950;2023-04-25T05:01:07;12.60;;;10.93;;
10863;SDS011;5485;37.558;126.950;2023-04-25T05:03:34;14.27;;;11.70;;
10863;SDS011;5485;37.558;126.950;2023-04-25T05:06:01;14.75;;;12.18;;
10863;SDS011;5485;37.558;126.950;2023-04-25T05:08:28;16.75;;;12.52;;
10863;SDS011;5485;37.558;126.950;2023-04-25T05:10:55;14.77;;;13.25;;
10863;SDS011;5485;37.558;126.950;2023-04-25T05:13:21;13.13;;;11.82;;
10863;SDS011;5485;37.558;126.950;2023-04-25T05:15:48;14.32;;;11.70;;
10863;SDS011;5485;37.558;126.950;2023-04-25T05:18:15;13.98;;;12.02;;
10863;SDS011;5485;37.558;126.950;2023-04-25T05:20:42;12.57;;;11.27;;
10863;SDS011;5485;37.558;126.950;2023-04-25T05:23:11;13.15;;;11.68;;
10863;SDS011;5485;37.558;126.950;2023-04-25T05:25:38;12.57;;;11.32;;
10863;SDS011;5485;37.558;126.950;2023-04-25T05:28:08;13.35;;;11.48;;
10863;SDS011;5485;37.558;126.950;2023-04-25T05:30:35;14.18;;;12.40;;
10863;SDS011;5485;37.558;126.950;2023-04-25T05:33:01;14.73;;;12.20;;
10863;SDS011;5485;37.558;126.950;2023-04-25T05:35:28;13.93;;;12.07;;
10863;SDS011;5485;37.558;126.950;2023-04-25T05:37:57;13.98;;;12.63;;
10863;SDS011;5485;37.558;126.950;2023-04-25T05:40:24;14.15;;;12.65;;
10863;SDS011;5485;37.558;126.950;2023-04-25T05:42:51;14.23;;;12.73;;
10863;SDS011;5485;37.558;126.950;2023-04-25T05:45:18;14.38;;;12.68;;
10863;SDS011;5485;37.558;126.950;2023-04-25T05:47:44;13.95;;;12.55;;
10863;SDS011;5485;37.558;126.950;2023-04-25T05:50:14;14.55;;;12.70;;
10863;SDS011;5485;37.558;126.950;2023-04-25T05:52:41;15.05;;;13.55;;
10863;SDS011;5485;37.558;126.950;2023-04-25T05:55:08;14.82;;;13.43;;
10863;SDS011;5485;37.558;126.950;2023-04-25T05:57:35;15.48;;;13.98;;
10863;SDS011;5485;37.558;126.950;2023-04-25T06:00:02;18.92;;;14.50;;
10863;SDS011;5485;37.558;126.950;2023-04-25T06:02:34;19.00;;;14.68;;
10863;SDS011;5485;37.558;126.950;2023-04-25T06:05:01;15.68;;;14.07;;
10863;SDS011;5485;37.558;126.950;2023-04-25T06:07:29;18.58;;;14.98;;
10863;SDS011;5485;37.558;126.950;2023-04-25T06:09:56;16.83;;;14.60;;
10863;SDS011;5485;37.558;126.950;2023-04-25T06:12:23;18.20;;;15.13;;
10863;SDS011;5485;37.558;126.950;2023-04-25T06:14:50;18.00;;;15.68;;
10863;SDS011;5485;37.558;126.950;2023-04-25T06:17:17;16.00;;;14.40;;
10863;SDS011;5485;37.558;126.950;2023-04-25T06:19:43;16.23;;;14.57;;
10863;SDS011;5485;37.558;126.950;2023-04-25T06:22:10;16.77;;;15.05;;
10863;SDS011;5485;37.558;126.950;2023-04-25T06:24:37;17.48;;;14.38;;
10863;SDS011;5485;37.558;126.950;2023-04-25T06:27:04;16.35;;;14.68;;
10863;SDS011;5485;37.558;126.950;2023-04-25T06:29:31;17.30;;;15.30;;
10863;SDS011;5485;37.558;126.950;2023-04-25T06:31:58;21.08;;;15.95;;
10863;SDS011;5485;37.558;126.950;2023-04-25T06:34:24;17.67;;;16.00;;
10863;SDS011;5485;37.558;126.950;2023-04-25T06:36:52;17.73;;;15.95;;
10863;SDS011;5485;37.558;126.950;2023-04-25T06:39:18;17.15;;;15.32;;
10863;SDS011;5485;37.558;126.950;2023-04-25T06:41:47;17.63;;;15.68;;
10863;SDS011;5485;37.558;126.950;2023-04-25T06:44:15;17.50;;;15.73;;
10863;SDS011;5485;37.558;126.950;2023-04-25T06:46:42;18.45;;;14.88;;
10863;SDS011;5485;37.558;126.950;2023-04-25T06:49:09;17.67;;;15.80;;
10863;SDS011;5485;37.558;126.950;2023-04-25T06:51:37;18.90;;;14.90;;
10863;SDS011;5485;37.558;126.950;2023-04-25T06:54:05;16.70;;;15.00;;
10863;SDS011;5485;37.558;126.950;2023-04-25T06:56:34;17.88;;;16.02;;
10863;SDS011;5485;37.558;126.950;2023-04-25T06:59:04;17.25;;;15.43;;
10863;SDS011;5485;37.558;126.950;2023-04-25T07:01:31;18.30;;;14.68;;
10863;SDS011;5485;37.558;126.950;2023-04-25T07:03:58;19.23;;;16.00;;
10863;SDS011;5485;37.558;126.950;2023-04-25T07:06:25;17.45;;;15.88;;
10863;SDS011;5485;37.558;126.950;2023-04-25T07:08:53;17.35;;;14.93;;
10863;SDS011;5485;37.558;126.950;2023-04-25T07:11:21;17.65;;;15.85;;
10863;SDS011;5485;37.558;126.950;2023-04-25T07:13:48;17.33;;;15.70;;
10863;SDS011;5485;37.558;126.950;2023-04-25T07:16:15;18.45;;;16.70;;
10863;SDS011;5485;37.558;126.950;2023-04-25T07:18:42;19.63;;;17.55;;
10863;SDS011;5485;37.558;126.950;2023-04-25T07:21:10;17.90;;;16.30;;
10863;SDS011;5485;37.558;126.950;2023-04-25T07:23:37;19.88;;;17.73;;
10863;SDS011;5485;37.558;126.950;2023-04-25T07:26:07;18.88;;;17.08;;
10863;SDS011;5485;37.558;126.950;2023-04-25T07:28:34;19.90;;;18.15;;
10863;SDS011;5485;37.558;126.950;2023-04-25T07:31:01;19.75;;;17.95;;
10863;SDS011;5485;37.558;126.950;2023-04-25T07:33:28;20.27;;;16.98;;
10863;SDS011;5485;37.558;126.950;2023-04-25T07:35:55;19.50;;;17.67;;
10863;SDS011;5485;37.558;126.950;2023-04-25T07:38:22;19.02;;;17.23;;
10863;SDS011;5485;37.558;126.950;2023-04-25T07:40:49;19.00;;;17.02;;
10863;SDS011;5485;37.558;126.950;2023-04-25T07:43:17;20.92;;;18.77;;
10863;SDS011;5485;37.558;126.950;2023-04-25T07:45:45;19.98;;;17.95;;
10863;SDS011;5485;37.558;126.950;2023-04-25T07:48:21;20.13;;;18.25;;
10863;SDS011;5485;37.558;126.950;2023-04-25T07:50:47;22.40;;;18.67;;
10863;SDS011;5485;37.558;126.950;2023-04-25T07:53:17;19.75;;;17.77;;
10863;SDS011;5485;37.558;126.950;2023-04-25T07:55:45;19.98;;;17.95;;
10863;SDS011;5485;37.558;126.950;2023-04-25T07:58:12;20.35;;;18.45;;
10863;SDS011;5485;37.558;126.950;2023-04-25T08:00:40;20.13;;;18.33;;
10863;SDS011;5485;37.558;126.950;2023-04-25T08:03:09;20.23;;;18.27;;
10863;SDS011;5485;37.558;126.950;2023-04-25T08:05:35;21.70;;;19.70;;
10863;SDS011;5485;37.558;126.950;2023-04-25T08:08:05;21.35;;;19.27;;
10863;SDS011;5485;37.558;126.950;2023-04-25T08:10:34;20.92;;;19.00;;
10863;SDS011;5485;37.558;126.950;2023-04-25T08:13:02;20.25;;;18.45;;
10863;SDS011;5485;37.558;126.950;2023-04-25T08:15:32;24.30;;;19.40;;
10863;SDS011;5485;37.558;126.950;2023-04-25T08:18:00;21.45;;;19.35;;
10863;SDS011;5485;37.558;126.950;2023-04-25T08:20:28;20.52;;;18.70;;
10863;SDS011;5485;37.558;126.950;2023-04-25T08:22:54;22.05;;;19.85;;
10863;SDS011;5485;37.558;126.950;2023-04-25T08:25:24;21.75;;;19.73;;
10863;SDS011;5485;37.558;126.950;2023-04-25T08:27:51;22.58;;;19.27;;
10863;SDS011;5485;37.558;126.950;2023-04-25T08:30:18;22.67;;;20.58;;
10863;SDS011;5485;37.558;126.950;2023-04-25T08:32:45;22.83;;;20.52;;
10863;SDS011;5485;37.558;126.950;2023-04-25T08:35:12;23.00;;;20.77;;
10863;SDS011;5485;37.558;126.950;2023-04-25T08:37:38;22.58;;;20.52;;
10863;SDS011;5485;37.558;126.950;2023-04-25T08:40:05;23.45;;;21.35;;
10863;SDS011;5485;37.558;126.950;2023-04-25T08:42:37;23.30;;;20.88;;
10863;SDS011;5485;37.558;126.950;2023-04-25T08:45:07;24.33;;;21.90;;
10863;SDS011;5485;37.558;126.950;2023-04-25T08:47:35;25.55;;;22.92;;
10863;SDS011;5485;37.558;126.950;2023-04-25T08:50:07;27.60;;;22.85;;
10863;SDS011;5485;37.558;126.950;2023-04-25T08:52:37;25.73;;;22.30;;
10863;SDS011;5485;37.558;126.950;2023-04-25T08:55:10;27.52;;;23.02;;
10863;SDS011;5485;37.558;126.950;2023-04-25T08:57:43;27.42;;;22.23;;
10863;SDS011;5485;37.558;126.950;2023-04-25T09:00:11;27.33;;;24.73;;
10863;SDS011;5485;37.558;126.950;2023-04-25T09:02:39;26.77;;;24.07;;
10863;SDS011;5485;37.558;126.950;2023-04-25T09:05:12;29.92;;;26.65;;
10863;SDS011;5485;37.558;126.950;2023-04-25T09:07:40;27.05;;;24.15;;
10863;SDS011;5485;37.558;126.950;2023-04-25T09:10:07;28.88;;;23.50;;
10863;SDS011;5485;37.558;126.950;2023-04-25T09:12:34;28.27;;;25.27;;
10863;SDS011;5485;37.558;126.950;2023-04-25T09:15:09;27.65;;;24.63;;
10863;SDS011;5485;37.558;126.950;2023-04-25T09:17:37;31.50;;;26.73;;
10863;SDS011;5485;37.558;126.950;2023-04-25T09:20:07;29.50;;;26.63;;
10863;SDS011;5485;37.558;126.950;2023-04-25T09:22:36;33.20;;;29.70;;
10863;SDS011;5485;37.558;126.950;2023-04-25T09:25:08;32.10;;;27.25;;
10863;SDS011;5485;37.558;126.950;2023-04-25T09:27:36;30.83;;;27.67;;
10863;SDS011;5485;37.558;126.950;2023-04-25T09:30:15;28.70;;;25.63;;
10863;SDS011;5485;37.558;126.950;2023-04-25T09:32:43;33.15;;;24.40;;
10863;SDS011;5485;37.558;126.950;2023-04-25T09:35:10;27.50;;;24.63;;
10863;SDS011;5485;37.558;126.950;2023-04-25T09:37:51;30.43;;;24.73;;
10863;SDS011;5485;37.558;126.950;2023-04-25T09:40:18;25.58;;;22.92;;
10863;SDS011;5485;37.558;126.950;2023-04-25T09:42:48;26.63;;;23.33;;
10863;SDS011;5485;37.558;126.950;2023-04-25T09:45:15;28.42;;;25.38;;
10863;SDS011;5485;37.558;126.950;2023-04-25T09:47:42;29.30;;;25.85;;
10863;SDS011;5485;37.558;126.950;2023-04-25T09:50:16;34.22;;;28.42;;
10863;SDS011;5485;37.558;126.950;2023-04-25T09:52:48;28.57;;;25.77;;
10863;SDS011;5485;37.558;126.950;2023-04-25T09:55:37;31.27;;;27.90;;
10863;SDS011;5485;37.558;126.950;2023-04-25T09:58:05;29.40;;;26.20;;
10863;SDS011;5485;37.558;126.950;2023-04-25T10:00:34;30.15;;;24.75;;
10863;SDS011;5485;37.558;126.950;2023-04-25T10:03:01;24.03;;;21.47;;
10863;SDS011;5485;37.558;126.950;2023-04-25T10:05:30;23.67;;;19.20;;
10863;SDS011;5485;37.558;126.950;2023-04-25T10:07:59;23.43;;;20.07;;
10863;SDS011;5485;37.558;126.950;2023-04-25T10:10:31;24.57;;;19.63;;
10863;SDS011;5485;37.558;126.950;2023-04-25T10:13:04;19.27;;;17.37;;
10863;SDS011;5485;37.558;126.950;2023-04-25T10:15:37;17.43;;;15.63;;
10863;SDS011;5485;37.558;126.950;2023-04-25T10:18:04;15.27;;;13.70;;
10863;SDS011;5485;37.558;126.950;2023-04-25T10:20:32;16.40;;;13.97;;
10863;SDS011;5485;37.558;126.950;2023-04-25T10:23:03;17.43;;;15.33;;
10863;SDS011;5485;37.558;126.950;2023-04-25T10:25:37;19.37;;;16.30;;
10863;SDS011;5485;37.558;126.950;2023-04-25T10:28:04;15.23;;;13.50;;
10863;SDS011;5485;37.558;126.950;2023-04-25T10:30:34;17.53;;;15.73;;
10863;SDS011;5485;37.558;126.950;2023-04-25T10:33:01;16.53;;;14.93;;
10863;SDS011;5485;37.558;126.950;2023-04-25T10:35:57;15.97;;;14.17;;
10863;SDS011;5485;37.558;126.950;2023-04-25T10:38:34;19.50;;;13.93;;
10863;SDS011;5485;37.558;126.950;2023-04-25T10:41:08;17.40;;;13.90;;
10863;SDS011;5485;37.558;126.950;2023-04-25T10:46:28;15.67;;;14.17;;
10863;SDS011;5485;37.558;126.950;2023-04-25T10:48:59;17.43;;;15.57;;
10863;SDS011;5485;37.558;126.950;2023-04-25T10:51:28;16.00;;;14.50;;
10863;SDS011;5485;37.558;126.950;2023-04-25T10:53:58;17.27;;;15.53;;
10863;SDS011;5485;37.558;126.950;2023-04-25T10:56:26;21.87;;;16.10;;
10863;SDS011;5485;37.558;126.950;2023-04-25T11:01:42;17.07;;;14.50;;
10863;SDS011;5485;37.558;126.950;2023-04-25T11:04:29;16.03;;;14.33;;
10863;SDS011;5485;37.558;126.950;2023-04-25T11:07:00;16.20;;;12.10;;
10863;SDS011;5485;37.558;126.950;2023-04-25T11:09:29;15.87;;;11.70;;
10863;SDS011;5485;37.558;126.950;2023-04-25T11:11:56;10.87;;;9.77;;
10863;SDS011;5485;37.558;126.950;2023-04-25T11:14:24;9.93;;;8.03;;
10863;SDS011;5485;37.558;126.950;2023-04-25T11:16:55;10.67;;;8.63;;
10863;SDS011;5485;37.558;126.950;2023-04-25T11:19:24;8.90;;;8.00;;
10863;SDS011;5485;37.558;126.950;2023-04-25T11:22:00;9.50;;;8.60;;
10863;SDS011;5485;37.558;126.950;2023-04-25T11:27:00;10.10;;;9.03;;
10863;SDS011;5485;37.558;126.950;2023-04-25T11:29:28;9.33;;;8.53;;
10863;SDS011;5485;37.558;126.950;2023-04-25T11:31:56;9.20;;;8.50;;
10863;SDS011;5485;37.558;126.950;2023-04-25T11:34:26;9.73;;;8.83;;
10863;SDS011;5485;37.558;126.950;2023-04-25T11:36:56;10.13;;;8.97;;
10863;SDS011;5485;37.558;126.950;2023-04-25T11:39:23;10.13;;;8.77;;
10863;SDS011;5485;37.558;126.950;2023-04-25T11:41:51;10.03;;;9.03;;
10863;SDS011;5485;37.558;126.950;2023-04-25T11:44:20;11.17;;;9.90;;
10863;SDS011;5485;37.558;126.950;2023-04-25T11:46:47;11.03;;;9.93;;
10863;SDS011;5485;37.558;126.950;2023-04-25T11:49:14;11.47;;;9.90;;
10863;SDS011;5485;37.558;126.950;2023-04-25T11:51:44;12.20;;;9.67;;
10863;SDS011;5485;37.558;126.950;2023-04-25T11:54:12;13.13;;;9.53;;
10863;SDS011;5485;37.558;126.950;2023-04-25T11:56:42;11.47;;;10.13;;
10863;SDS011;5485;37.558;126.950;2023-04-25T11:59:10;11.03;;;9.93;;
10863;SDS011;5485;37.558;126.950;2023-04-25T12:01:39;10.83;;;9.43;;
10863;SDS011;5485;37.558;126.950;2023-04-25T12:04:16;10.43;;;8.93;;
10863;SDS011;5485;37.558;126.950;2023-04-25T12:06:44;9.73;;;8.77;;
10863;SDS011;5485;37.558;126.950;2023-04-25T12:09:13;11.03;;;9.27;;
10863;SDS011;5485;37.558;126.950;2023-04-25T12:11:57;9.93;;;8.93;;
10863;SDS011;5485;37.558;126.950;2023-04-25T12:14:34;10.03;;;9.07;;
10863;SDS011;5485;37.558;126.950;2023-04-25T12:17:04;9.50;;;8.60;;
10863;SDS011;5485;37.558;126.950;2023-04-25T12:19:33;11.07;;;8.70;;
10863;SDS011;5485;37.558;126.950;2023-04-25T12:22:02;9.73;;;8.70;;
10863;SDS011;5485;37.558;126.950;2023-04-25T12:24:32;10.67;;;8.17;;
10863;SDS011;5485;37.558;126.950;2023-04-25T12:27:06;10.03;;;9.03;;
10863;SDS011;5485;37.558;126.950;2023-04-25T12:29:36;8.77;;;7.90;;
10863;SDS011;5485;37.558;126.950;2023-04-25T12:32:04;9.50;;;8.60;;
10863;SDS011;5485;37.558;126.950;2023-04-25T12:34:31;8.63;;;7.73;;
10863;SDS011;5485;37.558;126.950;2023-04-25T12:37:01;10.87;;;9.57;;
10863;SDS011;5485;37.558;126.950;2023-04-25T12:39:28;10.47;;;9.47;;
10863;SDS011;5485;37.558;126.950;2023-04-25T12:41:55;11.93;;;10.83;;
10863;SDS011;5485;37.558;126.950;2023-04-25T12:44:24;14.70;;;12.63;;
10863;SDS011;5485;37.558;126.950;2023-04-25T12:46:51;10.13;;;9.33;;
10863;SDS011;5485;37.558;126.950;2023-04-25T12:49:19;10.70;;;9.73;;
10863;SDS011;5485;37.558;126.950;2023-04-25T12:51:46;11.27;;;10.23;;
10863;SDS011;5485;37.558;126.950;2023-04-25T12:54:13;12.50;;;10.30;;
10863;SDS011;5485;37.558;126.950;2023-04-25T12:56:40;11.57;;;10.47;;
10863;SDS011;5485;37.558;126.950;2023-04-25T12:59:07;11.40;;;10.30;;
10863;SDS011;5485;37.558;126.950;2023-04-25T13:01:37;12.77;;;11.43;;
10863;SDS011;5485;37.558;126.950;2023-04-25T13:04:04;11.47;;;10.53;;
10863;SDS011;5485;37.558;126.950;2023-04-25T13:06:33;13.43;;;10.90;;
10863;SDS011;5485;37.558;126.950;2023-04-25T13:09:00;11.77;;;10.77;;
10863;SDS011;5485;37.558;126.950;2023-04-25T13:11:27;13.23;;;11.90;;
10863;SDS011;5485;37.558;126.950;2023-04-25T13:13:54;13.13;;;11.83;;
10863;SDS011;5485;37.558;126.950;2023-04-25T13:16:21;13.13;;;11.87;;
10863;SDS011;5485;37.558;126.950;2023-04-25T13:18:48;12.43;;;11.23;;
10863;SDS011;5485;37.558;126.950;2023-04-25T13:21:15;12.87;;;11.87;;
10863;SDS011;5485;37.558;126.950;2023-04-25T13:23:42;13.20;;;12.00;;
10863;SDS011;5485;37.558;126.950;2023-04-25T13:26:10;14.33;;;12.50;;
10863;SDS011;5485;37.558;126.950;2023-04-25T13:28:36;15.23;;;13.87;;
10863;SDS011;5485;37.558;126.950;2023-04-25T13:31:04;14.77;;;13.30;;
10863;SDS011;5485;37.558;126.950;2023-04-25T13:33:31;14.93;;;13.37;;
10863;SDS011;5485;37.558;126.950;2023-04-25T13:36:00;15.27;;;13.97;;
10863;SDS011;5485;37.558;126.950;2023-04-25T13:38:27;16.47;;;14.73;;
10863;SDS011;5485;37.558;126.950;2023-04-25T13:40:54;17.13;;;15.37;;
10863;SDS011;5485;37.558;126.950;2023-04-25T13:43:21;16.73;;;15.13;;
10863;SDS011;5485;37.558;126.950;2023-04-25T13:45:49;16.07;;;14.43;;
10863;SDS011;5485;37.558;126.950;2023-04-25T13:48:22;16.80;;;15.10;;
10863;SDS011;5485;37.558;126.950;2023-04-25T13:50:49;16.70;;;14.73;;
10863;SDS011;5485;37.558;126.950;2023-04-25T13:53:16;16.47;;;14.90;;
10863;SDS011;5485;37.558;126.950;2023-04-25T13:55:43;16.43;;;14.93;;
10863;SDS011;5485;37.558;126.950;2023-04-25T13:58:11;17.17;;;15.50;;
10863;SDS011;5485;37.558;126.950;2023-04-25T14:00:38;17.33;;;15.63;;
10863;SDS011;5485;37.558;126.950;2023-04-25T14:03:08;18.53;;;16.30;;
10863;SDS011;5485;37.558;126.950;2023-04-25T14:05:36;17.53;;;15.87;;
10863;SDS011;5485;37.558;126.950;2023-04-25T14:08:06;20.87;;;17.73;;
10863;SDS011;5485;37.558;126.950;2023-04-25T14:10:34;19.07;;;17.20;;
10863;SDS011;5485;37.558;126.950;2023-04-25T14:13:02;18.03;;;16.13;;
10863;SDS011;5485;37.558;126.950;2023-04-25T14:15:29;19.70;;;17.80;;
10863;SDS011;5485;37.558;126.950;2023-04-25T14:17:57;19.43;;;17.17;;
10863;SDS011;5485;37.558;126.950;2023-04-25T14:20:25;19.23;;;17.43;;
10863;SDS011;5485;37.558;126.950;2023-04-25T14:22:52;19.87;;;17.97;;
10863;SDS011;5485;37.558;126.950;2023-04-25T14:25:21;20.07;;;18.10;;
10863;SDS011;5485;37.558;126.950;2023-04-25T14:27:49;22.00;;;19.27;;
10863;SDS011;5485;37.558;126.950;2023-04-25T14:30:16;20.17;;;18.17;;